sensor_id;sensor_type;location;lat;lon;timestamp;P1;durP1;ratioP1;P2;durP2;ratioP2
62903;SDS011;49000;50.698;13.322;2023-11-21T00:01:35;2.33;;;0.90;;
62903;SDS011;49000;50.698;13.322;2023-11-21T00:04:00;1.60;;;1.10;;
62903;SDS011;49000;50.698;13.322;2023-11-21T00:06:26;1.47;;;0.93;;
62903;SDS011;49000;50.698;13.322;2023-11-21T00:08:52;1.27;;;0.80;;
62903;SDS011;49000;50.698;13.322;2023-11-21T00:11:17;1.13;;;0.90;;
62903;SDS011;49000;50.698;13.322;2023-11-21T00:13:43;5.83;;;1.20;;
62903;SDS011;49000;50.698;13.322;2023-11-21T00:16:08;1.40;;;0.90;;
62903;SDS011;49000;50.698;13.322;2023-11-21T00:18:34;1.90;;;1.10;;
62903;SDS011;49000;50.698;13.322;2023-11-21T00:21:00;1.40;;;0.80;;
62903;SDS011;49000;50.698;13.322;2023-11-21T00:23:26;2.80;;;1.30;;
62903;SDS011;49000;50.698;13.322;2023-11-21T00:25:51;2.70;;;1.17;;
62903;SDS011;49000;50.698;13.322;2023-11-21T00:28:17;3.47;;;1.33;;
62903;SDS011;49000;50.698;13.322;2023-11-21T00:30:42;3.90;;;1.03;;
62903;SDS011;49000;50.698;13.322;2023-11-21T00:33:08;1.50;;;1.20;;
62903;SDS011;49000;50.698;13.322;2023-11-21T00:35:33;3.00;;;1.13;;
62903;SDS011;49000;50.698;13.322;2023-11-21T00:37:59;3.57;;;1.30;;
62903;SDS011;49000;50.698;13.322;2023-11-21T00:40:24;3.47;;;1.27;;
62903;SDS011;49000;50.698;13.322;2023-11-21T00:42:50;2.23;;;1.20;;
62903;SDS011;49000;50.698;13.322;2023-11-21T00:45:15;2.87;;;1.23;;
62903;SDS011;49000;50.698;13.322;2023-11-21T00:47:41;2.33;;;0.90;;
62903;SDS011;49000;50.698;13.322;2023-11-21T00:50:07;3.40;;;1.20;;
62903;SDS011;49000;50.698;13.322;2023-11-21T00:52:33;1.90;;;1.20;;
62903;SDS011;49000;50.698;13.322;2023-11-21T00:54:59;1.73;;;1.13;;
62903;SDS011;49000;50.698;13.322;2023-11-21T00:57:25;2.93;;;1.13;;
62903;SDS011;49000;50.698;13.322;2023-11-21T00:59:51;2.47;;;1.50;;
62903;SDS011;49000;50.698;13.322;2023-11-21T01:02:16;3.93;;;1.10;;
62903;SDS011;49000;50.698;13.322;2023-11-21T01:04:42;4.27;;;1.40;;
62903;SDS011;49000;50.698;13.322;2023-11-21T01:07:08;3.40;;;1.03;;
62903;SDS011;49000;50.698;13.322;2023-11-21T01:09:34;1.93;;;1.30;;
62903;SDS011;49000;50.698;13.322;2023-11-21T01:11:59;3.53;;;1.10;;
62903;SDS011;49000;50.698;13.322;2023-11-21T01:14:25;3.77;;;1.77;;
62903;SDS011;49000;50.698;13.322;2023-11-21T01:16:54;3.07;;;1.80;;
62903;SDS011;49000;50.698;13.322;2023-11-21T01:19:19;2.10;;;1.43;;
62903;SDS011;49000;50.698;13.322;2023-11-21T01:21:45;3.90;;;1.57;;
62903;SDS011;49000;50.698;13.322;2023-11-21T01:24:11;1.70;;;1.50;;
62903;SDS011;49000;50.698;13.322;2023-11-21T01:26:36;2.87;;;1.20;;
62903;SDS011;49000;50.698;13.322;2023-11-21T01:29:02;2.77;;;1.60;;
62903;SDS011;49000;50.698;13.322;2023-11-21T01:31:27;1.97;;;1.43;;
62903;SDS011;49000;50.698;13.322;2023-11-21T01:33:54;2.70;;;1.40;;
62903;SDS011;49000;50.698;13.322;2023-11-21T01:36:23;2.77;;;1.47;;
62903;SDS011;49000;50.698;13.322;2023-11-21T01:38:56;3.10;;;1.20;;
62903;SDS011;49000;50.698;13.322;2023-11-21T01:41:24;2.57;;;1.50;;
62903;SDS011;49000;50.698;13.322;2023-11-21T01:43:52;3.53;;;1.53;;
62903;SDS011;49000;50.698;13.322;2023-11-21T01:46:18;2.53;;;1.30;;
62903;SDS011;49000;50.698;13.322;2023-11-21T01:48:45;4.40;;;1.67;;
62903;SDS011;49000;50.698;13.322;2023-11-21T01:51:11;2.30;;;1.13;;
62903;SDS011;49000;50.698;13.322;2023-11-21T01:53:37;5.13;;;1.57;;
62903;SDS011;49000;50.698;13.322;2023-11-21T01:56:04;1.73;;;1.30;;
62903;SDS011;49000;50.698;13.322;2023-11-21T01:58:32;3.47;;;1.57;;
62903;SDS011;49000;50.698;13.322;2023-11-21T02:00:58;2.73;;;1.30;;
62903;SDS011;49000;50.698;13.322;2023-11-21T02:03:23;2.97;;;1.60;;
62903;SDS011;49000;50.698;13.322;2023-11-21T02:05:49;3.53;;;1.50;;
62903;SDS011;49000;50.698;13.322;2023-11-21T02:08:14;3.23;;;1.47;;
62903;SDS011;49000;50.698;13.322;2023-11-21T02:10:40;2.73;;;1.27;;
62903;SDS011;49000;50.698;13.322;2023-11-21T02:13:06;1.40;;;1.00;;
62903;SDS011;49000;50.698;13.322;2023-11-21T02:15:31;2.33;;;1.30;;
62903;SDS011;49000;50.698;13.322;2023-11-21T02:17:57;2.93;;;1.03;;
62903;SDS011;49000;50.698;13.322;2023-11-21T02:20:23;2.53;;;1.30;;
62903;SDS011;49000;50.698;13.322;2023-11-21T02:22:50;1.63;;;1.23;;
62903;SDS011;49000;50.698;13.322;2023-11-21T02:25:29;1.77;;;1.07;;
62903;SDS011;49000;50.698;13.322;2023-11-21T02:27:56;2.73;;;1.40;;
62903;SDS011;49000;50.698;13.322;2023-11-21T02:30:22;2.27;;;1.33;;
62903;SDS011;49000;50.698;13.322;2023-11-21T02:32:50;1.80;;;1.20;;
62903;SDS011;49000;50.698;13.322;2023-11-21T02:35:18;1.90;;;1.40;;
62903;SDS011;49000;50.698;13.322;2023-11-21T02:37:46;3.53;;;1.40;;
62903;SDS011;49000;50.698;13.322;2023-11-21T02:40:11;2.13;;;1.03;;
62903;SDS011;49000;50.698;13.322;2023-11-21T02:42:38;1.27;;;0.90;;
62903;SDS011;49000;50.698;13.322;2023-11-21T02:45:05;3.93;;;1.23;;
62903;SDS011;49000;50.698;13.322;2023-11-21T02:47:31;2.27;;;1.20;;
62903;SDS011;49000;50.698;13.322;2023-11-21T02:49:57;2.30;;;1.20;;
62903;SDS011;49000;50.698;13.322;2023-11-21T02:52:22;3.40;;;1.30;;
62903;SDS011;49000;50.698;13.322;2023-11-21T02:54:48;2.17;;;1.27;;
62903;SDS011;49000;50.698;13.322;2023-11-21T02:57:14;1.83;;;1.00;;
62903;SDS011;49000;50.698;13.322;2023-11-21T02:59:40;2.60;;;1.20;;
62903;SDS011;49000;50.698;13.322;2023-11-21T03:02:05;3.83;;;1.50;;
62903;SDS011;49000;50.698;13.322;2023-11-21T03:04:33;2.23;;;1.30;;
62903;SDS011;49000;50.698;13.322;2023-11-21T03:07:00;3.13;;;1.57;;
62903;SDS011;49000;50.698;13.322;2023-11-21T03:09:25;2.50;;;1.57;;
62903;SDS011;49000;50.698;13.322;2023-11-21T03:11:51;1.77;;;1.20;;
62903;SDS011;49000;50.698;13.322;2023-11-21T03:14:17;2.93;;;2.00;;
62903;SDS011;49000;50.698;13.322;2023-11-21T03:16:43;2.37;;;1.37;;
62903;SDS011;49000;50.698;13.322;2023-11-21T03:19:09;4.40;;;1.50;;
62903;SDS011;49000;50.698;13.322;2023-11-21T03:21:34;2.80;;;1.60;;
62903;SDS011;49000;50.698;13.322;2023-11-21T03:24:00;3.90;;;1.63;;
62903;SDS011;49000;50.698;13.322;2023-11-21T03:26:26;3.27;;;1.10;;
62903;SDS011;49000;50.698;13.322;2023-11-21T03:28:52;5.50;;;1.40;;
62903;SDS011;49000;50.698;13.322;2023-11-21T03:31:18;3.93;;;1.60;;
62903;SDS011;49000;50.698;13.322;2023-11-21T03:33:44;4.77;;;1.87;;
62903;SDS011;49000;50.698;13.322;2023-11-21T03:36:10;6.40;;;1.40;;
62903;SDS011;49000;50.698;13.322;2023-11-21T03:38:36;1.83;;;1.30;;
62903;SDS011;49000;50.698;13.322;2023-11-21T03:41:02;2.07;;;1.27;;
62903;SDS011;49000;50.698;13.322;2023-11-21T03:43:28;3.17;;;1.50;;
62903;SDS011;49000;50.698;13.322;2023-11-21T03:45:54;3.00;;;1.40;;
62903;SDS011;49000;50.698;13.322;2023-11-21T03:48:19;3.17;;;2.00;;
62903;SDS011;49000;50.698;13.322;2023-11-21T03:50:45;3.13;;;1.40;;
62903;SDS011;49000;50.698;13.322;2023-11-21T03:53:12;5.53;;;1.93;;
62903;SDS011;49000;50.698;13.322;2023-11-21T03:55:37;4.63;;;2.20;;
62903;SDS011;49000;50.698;13.322;2023-11-21T03:58:03;5.03;;;2.03;;
62903;SDS011;49000;50.698;13.322;2023-11-21T04:00:28;3.40;;;1.40;;
62903;SDS011;49000;50.698;13.322;2023-11-21T04:02:54;2.30;;;1.40;;
62903;SDS011;49000;50.698;13.322;2023-11-21T04:05:20;2.87;;;1.70;;
62903;SDS011;49000;50.698;13.322;2023-11-21T04:07:47;4.23;;;2.23;;
62903;SDS011;49000;50.698;13.322;2023-11-21T04:10:14;6.97;;;1.77;;
62903;SDS011;49000;50.698;13.322;2023-11-21T04:12:40;5.23;;;2.67;;
62903;SDS011;49000;50.698;13.322;2023-11-21T04:15:06;4.37;;;1.90;;
62903;SDS011;49000;50.698;13.322;2023-11-21T04:17:33;5.00;;;1.70;;
62903;SDS011;49000;50.698;13.322;2023-11-21T04:19:59;3.70;;;1.50;;
62903;SDS011;49000;50.698;13.322;2023-11-21T04:22:25;5.67;;;1.53;;
62903;SDS011;49000;50.698;13.322;2023-11-21T04:24:50;5.20;;;1.77;;
62903;SDS011;49000;50.698;13.322;2023-11-21T04:27:16;2.30;;;1.80;;
62903;SDS011;49000;50.698;13.322;2023-11-21T04:29:43;2.53;;;1.80;;
62903;SDS011;49000;50.698;13.322;2023-11-21T04:32:09;3.27;;;2.10;;
62903;SDS011;49000;50.698;13.322;2023-11-21T04:34:34;2.90;;;1.90;;
62903;SDS011;49000;50.698;13.322;2023-11-21T04:37:00;4.03;;;2.27;;
62903;SDS011;49000;50.698;13.322;2023-11-21T04:39:26;2.87;;;1.90;;
62903;SDS011;49000;50.698;13.322;2023-11-21T04:41:51;5.27;;;2.40;;
62903;SDS011;49000;50.698;13.322;2023-11-21T04:44:17;5.80;;;2.13;;
62903;SDS011;49000;50.698;13.322;2023-11-21T04:46:43;5.10;;;2.00;;
62903;SDS011;49000;50.698;13.322;2023-11-21T04:49:08;5.50;;;2.43;;
62903;SDS011;49000;50.698;13.322;2023-11-21T04:51:35;3.47;;;2.30;;
62903;SDS011;49000;50.698;13.322;2023-11-21T04:54:01;3.03;;;1.87;;
62903;SDS011;49000;50.698;13.322;2023-11-21T04:56:27;4.80;;;2.30;;
62903;SDS011;49000;50.698;13.322;2023-11-21T04:58:52;7.00;;;2.27;;
62903;SDS011;49000;50.698;13.322;2023-11-21T05:01:19;4.07;;;2.70;;
62903;SDS011;49000;50.698;13.322;2023-11-21T05:03:46;5.97;;;2.53;;
62903;SDS011;49000;50.698;13.322;2023-11-21T05:06:12;4.27;;;2.00;;
62903;SDS011;49000;50.698;13.322;2023-11-21T05:08:39;5.17;;;2.37;;
62903;SDS011;49000;50.698;13.322;2023-11-21T05:11:04;5.37;;;3.17;;
62903;SDS011;49000;50.698;13.322;2023-11-21T05:13:32;6.80;;;3.33;;
62903;SDS011;49000;50.698;13.322;2023-11-21T05:15:59;9.70;;;4.27;;
62903;SDS011;49000;50.698;13.322;2023-11-21T05:18:24;4.23;;;2.87;;
62903;SDS011;49000;50.698;13.322;2023-11-21T05:20:54;7.77;;;3.20;;
62903;SDS011;49000;50.698;13.322;2023-11-21T05:23:20;5.13;;;3.40;;
62903;SDS011;49000;50.698;13.322;2023-11-21T05:25:46;9.33;;;3.73;;
62903;SDS011;49000;50.698;13.322;2023-11-21T05:28:11;8.77;;;3.57;;
62903;SDS011;49000;50.698;13.322;2023-11-21T05:30:37;6.80;;;4.13;;
62903;SDS011;49000;50.698;13.322;2023-11-21T05:33:04;5.63;;;3.33;;
62903;SDS011;49000;50.698;13.322;2023-11-21T05:35:30;6.97;;;4.20;;
62903;SDS011;49000;50.698;13.322;2023-11-21T05:37:56;8.07;;;4.33;;
62903;SDS011;49000;50.698;13.322;2023-11-21T05:40:21;7.70;;;4.10;;
62903;SDS011;49000;50.698;13.322;2023-11-21T05:42:47;10.13;;;5.13;;
62903;SDS011;49000;50.698;13.322;2023-11-21T05:45:13;9.30;;;5.07;;
62903;SDS011;49000;50.698;13.322;2023-11-21T05:47:41;9.47;;;4.90;;
62903;SDS011;49000;50.698;13.322;2023-11-21T05:50:11;11.87;;;4.70;;
62903;SDS011;49000;50.698;13.322;2023-11-21T05:52:39;6.37;;;4.80;;
62903;SDS011;49000;50.698;13.322;2023-11-21T05:55:06;5.70;;;4.10;;
62903;SDS011;49000;50.698;13.322;2023-11-21T05:57:38;9.57;;;5.20;;
62903;SDS011;49000;50.698;13.322;2023-11-21T06:02:36;9.10;;;4.77;;
62903;SDS011;49000;50.698;13.322;2023-11-21T06:05:06;8.10;;;5.50;;
62903;SDS011;49000;50.698;13.322;2023-11-21T06:07:32;12.27;;;5.27;;
62903;SDS011;49000;50.698;13.322;2023-11-21T06:09:57;7.90;;;5.03;;
62903;SDS011;49000;50.698;13.322;2023-11-21T06:12:23;7.63;;;4.70;;
62903;SDS011;49000;50.698;13.322;2023-11-21T06:14:48;6.83;;;4.70;;
62903;SDS011;49000;50.698;13.322;2023-11-21T06:17:14;7.93;;;4.70;;
62903;SDS011;49000;50.698;13.322;2023-11-21T06:19:39;7.47;;;4.27;;
62903;SDS011;49000;50.698;13.322;2023-11-21T06:22:05;9.27;;;5.30;;
62903;SDS011;49000;50.698;13.322;2023-11-21T06:24:31;9.50;;;4.67;;
62903;SDS011;49000;50.698;13.322;2023-11-21T06:26:56;9.43;;;4.93;;
62903;SDS011;49000;50.698;13.322;2023-11-21T06:29:22;9.07;;;5.13;;
62903;SDS011;49000;50.698;13.322;2023-11-21T06:31:47;8.87;;;4.83;;
62903;SDS011;49000;50.698;13.322;2023-11-21T06:34:14;9.43;;;5.33;;
62903;SDS011;49000;50.698;13.322;2023-11-21T06:36:39;7.37;;;6.13;;
62903;SDS011;49000;50.698;13.322;2023-11-21T06:39:05;11.50;;;5.37;;
62903;SDS011;49000;50.698;13.322;2023-11-21T06:41:32;10.40;;;5.27;;
62903;SDS011;49000;50.698;13.322;2023-11-21T06:43:58;9.30;;;5.60;;
62903;SDS011;49000;50.698;13.322;2023-11-21T06:46:24;10.73;;;5.23;;
62903;SDS011;49000;50.698;13.322;2023-11-21T06:48:49;9.10;;;6.00;;
62903;SDS011;49000;50.698;13.322;2023-11-21T06:51:15;12.13;;;5.53;;
62903;SDS011;49000;50.698;13.322;2023-11-21T06:53:41;9.67;;;5.03;;
62903;SDS011;49000;50.698;13.322;2023-11-21T06:56:18;11.77;;;5.60;;
62903;SDS011;49000;50.698;13.322;2023-11-21T06:58:45;10.57;;;5.97;;
62903;SDS011;49000;50.698;13.322;2023-11-21T07:01:11;10.77;;;6.20;;
62903;SDS011;49000;50.698;13.322;2023-11-21T07:03:38;8.60;;;5.47;;
62903;SDS011;49000;50.698;13.322;2023-11-21T07:06:03;7.13;;;4.93;;
62903;SDS011;49000;50.698;13.322;2023-11-21T07:08:29;11.23;;;5.50;;
62903;SDS011;49000;50.698;13.322;2023-11-21T07:10:55;10.47;;;5.87;;
62903;SDS011;49000;50.698;13.322;2023-11-21T07:13:20;10.73;;;5.27;;
62903;SDS011;49000;50.698;13.322;2023-11-21T07:15:46;12.50;;;6.20;;
62903;SDS011;49000;50.698;13.322;2023-11-21T07:18:13;7.90;;;4.93;;
62903;SDS011;49000;50.698;13.322;2023-11-21T07:20:38;13.10;;;5.93;;
62903;SDS011;49000;50.698;13.322;2023-11-21T07:23:04;8.90;;;5.00;;
62903;SDS011;49000;50.698;13.322;2023-11-21T07:25:30;9.10;;;5.70;;
62903;SDS011;49000;50.698;13.322;2023-11-21T07:27:56;12.20;;;5.13;;
62903;SDS011;49000;50.698;13.322;2023-11-21T07:30:22;9.30;;;5.17;;
62903;SDS011;49000;50.698;13.322;2023-11-21T07:32:48;7.57;;;4.93;;
62903;SDS011;49000;50.698;13.322;2023-11-21T07:35:14;10.77;;;5.03;;
62903;SDS011;49000;50.698;13.322;2023-11-21T07:37:39;10.43;;;6.10;;
62903;SDS011;49000;50.698;13.322;2023-11-21T07:40:05;11.87;;;5.23;;
62903;SDS011;49000;50.698;13.322;2023-11-21T07:42:33;10.37;;;4.87;;
62903;SDS011;49000;50.698;13.322;2023-11-21T07:44:59;11.57;;;5.03;;
62903;SDS011;49000;50.698;13.322;2023-11-21T07:47:24;11.27;;;5.47;;
62903;SDS011;49000;50.698;13.322;2023-11-21T07:49:52;6.57;;;4.50;;
62903;SDS011;49000;50.698;13.322;2023-11-21T07:52:18;5.90;;;4.70;;
62903;SDS011;49000;50.698;13.322;2023-11-21T07:54:46;12.57;;;6.10;;
62903;SDS011;49000;50.698;13.322;2023-11-21T07:57:11;8.00;;;4.93;;
62903;SDS011;49000;50.698;13.322;2023-11-21T07:59:38;11.20;;;5.40;;
62903;SDS011;49000;50.698;13.322;2023-11-21T08:02:06;10.50;;;6.30;;
62903;SDS011;49000;50.698;13.322;2023-11-21T08:04:32;11.03;;;6.27;;
62903;SDS011;49000;50.698;13.322;2023-11-21T08:06:59;18.10;;;6.83;;
62903;SDS011;49000;50.698;13.322;2023-11-21T08:09:24;9.47;;;5.80;;
62903;SDS011;49000;50.698;13.322;2023-11-21T08:11:50;14.03;;;7.40;;
62903;SDS011;49000;50.698;13.322;2023-11-21T08:14:17;13.83;;;6.50;;
62903;SDS011;49000;50.698;13.322;2023-11-21T08:16:42;10.53;;;7.10;;
62903;SDS011;49000;50.698;13.322;2023-11-21T08:19:09;16.40;;;7.07;;
62903;SDS011;49000;50.698;13.322;2023-11-21T08:21:36;10.47;;;6.90;;
62903;SDS011;49000;50.698;13.322;2023-11-21T08:24:02;19.80;;;7.43;;
62903;SDS011;49000;50.698;13.322;2023-11-21T08:26:29;15.27;;;6.67;;
62903;SDS011;49000;50.698;13.322;2023-11-21T08:28:55;12.97;;;6.80;;
62903;SDS011;49000;50.698;13.322;2023-11-21T08:31:25;14.53;;;7.00;;
62903;SDS011;49000;50.698;13.322;2023-11-21T08:33:51;12.07;;;7.00;;
62903;SDS011;49000;50.698;13.322;2023-11-21T08:36:19;15.97;;;7.50;;
62903;SDS011;49000;50.698;13.322;2023-11-21T08:38:46;16.73;;;8.00;;
62903;SDS011;49000;50.698;13.322;2023-11-21T08:41:11;15.23;;;8.10;;
62903;SDS011;49000;50.698;13.322;2023-11-21T08:43:37;19.60;;;7.73;;
62903;SDS011;49000;50.698;13.322;2023-11-21T08:46:04;14.83;;;6.87;;
62903;SDS011;49000;50.698;13.322;2023-11-21T08:48:31;11.73;;;6.87;;
62903;SDS011;49000;50.698;13.322;2023-11-21T08:50:57;17.10;;;6.67;;
62903;SDS011;49000;50.698;13.322;2023-11-21T08:53:23;12.47;;;6.37;;
62903;SDS011;49000;50.698;13.322;2023-11-21T08:55:48;11.70;;;6.27;;
62903;SDS011;49000;50.698;13.322;2023-11-21T08:58:15;9.43;;;6.40;;
62903;SDS011;49000;50.698;13.322;2023-11-21T09:00:40;8.20;;;5.87;;
62903;SDS011;49000;50.698;13.322;2023-11-21T09:03:06;10.93;;;6.03;;
62903;SDS011;49000;50.698;13.322;2023-11-21T09:05:33;8.83;;;6.17;;
62903;SDS011;49000;50.698;13.322;2023-11-21T09:08:03;8.80;;;5.30;;
62903;SDS011;49000;50.698;13.322;2023-11-21T09:10:28;6.20;;;4.90;;
62903;SDS011;49000;50.698;13.322;2023-11-21T09:12:54;5.00;;;4.40;;
62903;SDS011;49000;50.698;13.322;2023-11-21T09:15:19;7.60;;;4.80;;
62903;SDS011;49000;50.698;13.322;2023-11-21T09:17:45;6.63;;;4.87;;
62903;SDS011;49000;50.698;13.322;2023-11-21T09:20:11;7.50;;;5.13;;
62903;SDS011;49000;50.698;13.322;2023-11-21T09:22:36;6.77;;;4.80;;
62903;SDS011;49000;50.698;13.322;2023-11-21T09:25:02;7.30;;;4.93;;
62903;SDS011;49000;50.698;13.322;2023-11-21T09:27:30;7.93;;;5.30;;
62903;SDS011;49000;50.698;13.322;2023-11-21T09:29:56;8.57;;;5.83;;
62903;SDS011;49000;50.698;13.322;2023-11-21T09:32:23;6.47;;;5.03;;
62903;SDS011;49000;50.698;13.322;2023-11-21T09:34:49;8.80;;;4.47;;
62903;SDS011;49000;50.698;13.322;2023-11-21T09:37:15;6.70;;;5.10;;
62903;SDS011;49000;50.698;13.322;2023-11-21T09:39:41;5.77;;;4.27;;
62903;SDS011;49000;50.698;13.322;2023-11-21T09:42:08;8.63;;;4.60;;
62903;SDS011;49000;50.698;13.322;2023-11-21T09:44:36;5.53;;;4.13;;
62903;SDS011;49000;50.698;13.322;2023-11-21T09:47:21;8.10;;;3.37;;
62903;SDS011;49000;50.698;13.322;2023-11-21T09:49:48;6.23;;;3.63;;
62903;SDS011;49000;50.698;13.322;2023-11-21T09:52:26;5.07;;;3.30;;
62903;SDS011;49000;50.698;13.322;2023-11-21T09:54:52;4.77;;;3.50;;
62903;SDS011;49000;50.698;13.322;2023-11-21T09:57:19;4.70;;;4.00;;
62903;SDS011;49000;50.698;13.322;2023-11-21T09:59:52;7.67;;;4.20;;
62903;SDS011;49000;50.698;13.322;2023-11-21T10:02:24;5.13;;;4.00;;
62903;SDS011;49000;50.698;13.322;2023-11-21T10:04:53;9.67;;;4.57;;
62903;SDS011;49000;50.698;13.322;2023-11-21T10:07:19;7.00;;;4.20;;
62903;SDS011;49000;50.698;13.322;2023-11-21T10:09:46;8.17;;;4.43;;
62903;SDS011;49000;50.698;13.322;2023-11-21T10:12:13;7.50;;;4.30;;
62903;SDS011;49000;50.698;13.322;2023-11-21T10:14:41;6.40;;;3.83;;
62903;SDS011;49000;50.698;13.322;2023-11-21T10:17:08;8.27;;;5.10;;
62903;SDS011;49000;50.698;13.322;2023-11-21T10:19:37;6.43;;;4.80;;
62903;SDS011;49000;50.698;13.322;2023-11-21T10:22:04;6.90;;;4.77;;
62903;SDS011;49000;50.698;13.322;2023-11-21T10:24:32;7.20;;;4.60;;
62903;SDS011;49000;50.698;13.322;2023-11-21T10:26:57;6.13;;;3.30;;
62903;SDS011;49000;50.698;13.322;2023-11-21T10:29:23;4.57;;;3.00;;
62903;SDS011;49000;50.698;13.322;2023-11-21T10:31:49;3.30;;;2.67;;
62903;SDS011;49000;50.698;13.322;2023-11-21T10:34:17;2.90;;;2.23;;
62903;SDS011;49000;50.698;13.322;2023-11-21T10:36:44;3.07;;;2.73;;
62903;SDS011;49000;50.698;13.322;2023-11-21T10:39:13;2.43;;;1.90;;
62903;SDS011;49000;50.698;13.322;2023-11-21T10:41:43;2.43;;;2.00;;
62903;SDS011;49000;50.698;13.322;2023-11-21T10:44:10;2.23;;;1.87;;
62903;SDS011;49000;50.698;13.322;2023-11-21T10:46:36;2.93;;;1.70;;
62903;SDS011;49000;50.698;13.322;2023-11-21T10:49:02;2.00;;;1.67;;
62903;SDS011;49000;50.698;13.322;2023-11-21T10:51:29;1.60;;;1.30;;
62903;SDS011;49000;50.698;13.322;2023-11-21T10:53:54;1.03;;;0.93;;
62903;SDS011;49000;50.698;13.322;2023-11-21T10:56:23;1.33;;;1.07;;
62903;SDS011;49000;50.698;13.322;2023-11-21T10:58:49;1.10;;;0.90;;
62903;SDS011;49000;50.698;13.322;2023-11-21T11:01:17;2.40;;;1.27;;
62903;SDS011;49000;50.698;13.322;2023-11-21T11:03:45;1.00;;;0.90;;
62903;SDS011;49000;50.698;13.322;2023-11-21T11:06:12;1.00;;;0.80;;
62903;SDS011;49000;50.698;13.322;2023-11-21T11:08:39;0.90;;;0.80;;
62903;SDS011;49000;50.698;13.322;2023-11-21T11:11:06;2.40;;;0.80;;
62903;SDS011;49000;50.698;13.322;2023-11-21T11:13:32;1.20;;;0.70;;
62903;SDS011;49000;50.698;13.322;2023-11-21T11:15:59;2.93;;;0.90;;
62903;SDS011;49000;50.698;13.322;2023-11-21T11:18:26;1.23;;;0.80;;
62903;SDS011;49000;50.698;13.322;2023-11-21T11:20:54;1.63;;;0.80;;
62903;SDS011;49000;50.698;13.322;2023-11-21T11:23:36;1.07;;;0.83;;
62903;SDS011;49000;50.698;13.322;2023-11-21T11:31:51;1.23;;;0.50;;
62903;SDS011;49000;50.698;13.322;2023-11-21T11:34:30;1.03;;;0.50;;
62903;SDS011;49000;50.698;13.322;2023-11-21T11:37:00;0.50;;;0.40;;
62903;SDS011;49000;50.698;13.322;2023-11-21T11:39:31;0.37;;;0.37;;
62903;SDS011;49000;50.698;13.322;2023-11-21T11:42:01;0.90;;;0.47;;
62903;SDS011;49000;50.698;13.322;2023-11-21T11:47:14;0.60;;;0.57;;
62903;SDS011;49000;50.698;13.322;2023-11-21T11:50:00;0.90;;;0.70;;
62903;SDS011;49000;50.698;13.322;2023-11-21T11:52:47;2.00;;;0.77;;
62903;SDS011;49000;50.698;13.322;2023-11-21T11:55:14;1.60;;;0.93;;
62903;SDS011;49000;50.698;13.322;2023-11-21T11:57:44;6.10;;;1.30;;
62903;SDS011;49000;50.698;13.322;2023-11-21T12:00:12;3.67;;;1.77;;
62903;SDS011;49000;50.698;13.322;2023-11-21T12:02:47;20.40;;;1.90;;
62903;SDS011;49000;50.698;13.322;2023-11-21T12:05:17;18.60;;;2.37;;
62903;SDS011;49000;50.698;13.322;2023-11-21T12:10:13;3.17;;;2.20;;
62903;SDS011;49000;50.698;13.322;2023-11-21T12:12:45;2.50;;;1.50;;
62903;SDS011;49000;50.698;13.322;2023-11-21T12:15:14;6.23;;;1.80;;
62903;SDS011;49000;50.698;13.322;2023-11-21T12:17:41;3.27;;;2.20;;
62903;SDS011;49000;50.698;13.322;2023-11-21T12:20:08;1.97;;;1.60;;
62903;SDS011;49000;50.698;13.322;2023-11-21T12:22:43;12.33;;;2.03;;
62903;SDS011;49000;50.698;13.322;2023-11-21T12:25:12;2.93;;;1.97;;
62903;SDS011;49000;50.698;13.322;2023-11-21T12:27:41;30.00;;;2.90;;
62903;SDS011;49000;50.698;13.322;2023-11-21T12:30:14;17.40;;;2.50;;
62903;SDS011;49000;50.698;13.322;2023-11-21T12:32:45;45.67;;;2.93;;
62903;SDS011;49000;50.698;13.322;2023-11-21T12:35:14;26.23;;;2.77;;
62903;SDS011;49000;50.698;13.322;2023-11-21T12:37:41;18.00;;;2.13;;
62903;SDS011;49000;50.698;13.322;2023-11-21T12:40:10;14.90;;;2.63;;
62903;SDS011;49000;50.698;13.322;2023-11-21T12:42:44;19.17;;;2.90;;
62903;SDS011;49000;50.698;13.322;2023-11-21T12:47:46;35.13;;;2.97;;
62903;SDS011;49000;50.698;13.322;2023-11-21T12:50:22;22.17;;;2.57;;
62903;SDS011;49000;50.698;13.322;2023-11-21T12:52:51;18.93;;;2.30;;
62903;SDS011;49000;50.698;13.322;2023-11-21T12:55:18;8.57;;;2.20;;
62903;SDS011;49000;50.698;13.322;2023-11-21T12:57:47;19.97;;;2.80;;
62903;SDS011;49000;50.698;13.322;2023-11-21T13:00:16;5.80;;;1.83;;
62903;SDS011;49000;50.698;13.322;2023-11-21T13:02:52;4.97;;;2.10;;
62903;SDS011;49000;50.698;13.322;2023-11-21T13:05:30;2.50;;;1.90;;
62903;SDS011;49000;50.698;13.322;2023-11-21T13:07:58;6.97;;;2.10;;
62903;SDS011;49000;50.698;13.322;2023-11-21T13:10:27;2.20;;;1.50;;
62903;SDS011;49000;50.698;13.322;2023-11-21T13:12:56;1.93;;;1.40;;
62903;SDS011;49000;50.698;13.322;2023-11-21T13:15:23;2.07;;;1.50;;
62903;SDS011;49000;50.698;13.322;2023-11-21T13:17:49;1.70;;;1.20;;
62903;SDS011;49000;50.698;13.322;2023-11-21T13:20:16;1.80;;;1.40;;
62903;SDS011;49000;50.698;13.322;2023-11-21T13:22:52;2.97;;;1.63;;
62903;SDS011;49000;50.698;13.322;2023-11-21T13:25:26;2.20;;;1.43;;
62903;SDS011;49000;50.698;13.322;2023-11-21T13:27:55;2.43;;;1.73;;
62903;SDS011;49000;50.698;13.322;2023-11-21T13:30:21;3.10;;;1.20;;
62903;SDS011;49000;50.698;13.322;2023-11-21T13:32:52;1.90;;;1.30;;
62903;SDS011;49000;50.698;13.322;2023-11-21T13:35:26;2.07;;;1.27;;
62903;SDS011;49000;50.698;13.322;2023-11-21T13:38:04;2.10;;;1.30;;
62903;SDS011;49000;50.698;13.322;2023-11-21T13:40:31;2.00;;;1.33;;
62903;SDS011;49000;50.698;13.322;2023-11-21T13:42:59;2.80;;;1.60;;
62903;SDS011;49000;50.698;13.322;2023-11-21T13:45:29;1.53;;;1.10;;
62903;SDS011;49000;50.698;13.322;2023-11-21T13:47:55;3.30;;;1.57;;
62903;SDS011;49000;50.698;13.322;2023-11-21T13:50:25;1.90;;;1.50;;
62903;SDS011;49000;50.698;13.322;2023-11-21T13:52:57;1.97;;;1.47;;
62903;SDS011;49000;50.698;13.322;2023-11-21T13:55:28;1.90;;;1.20;;
62903;SDS011;49000;50.698;13.322;2023-11-21T13:57:53;2.43;;;1.10;;
62903;SDS011;49000;50.698;13.322;2023-11-21T14:00:19;2.50;;;1.20;;
62903;SDS011;49000;50.698;13.322;2023-11-21T14:03:03;1.43;;;0.93;;
62903;SDS011;49000;50.698;13.322;2023-11-21T14:05:33;1.40;;;0.90;;
62903;SDS011;49000;50.698;13.322;2023-11-21T14:07:59;2.10;;;1.30;;
62903;SDS011;49000;50.698;13.322;2023-11-21T14:10:29;2.30;;;1.77;;
62903;SDS011;49000;50.698;13.322;2023-11-21T14:13:11;2.33;;;1.50;;
62903;SDS011;49000;50.698;13.322;2023-11-21T14:15:38;2.60;;;1.43;;
62903;SDS011;49000;50.698;13.322;2023-11-21T14:18:07;2.83;;;1.80;;
62903;SDS011;49000;50.698;13.322;2023-11-21T14:20:35;3.90;;;1.73;;
62903;SDS011;49000;50.698;13.322;2023-11-21T14:23:02;3.53;;;1.60;;
62903;SDS011;49000;50.698;13.322;2023-11-21T14:25:31;3.40;;;2.10;;
62903;SDS011;49000;50.698;13.322;2023-11-21T14:27:57;4.47;;;1.73;;
62903;SDS011;49000;50.698;13.322;2023-11-21T14:30:22;2.90;;;1.50;;
62903;SDS011;49000;50.698;13.322;2023-11-21T14:32:48;2.73;;;1.70;;
62903;SDS011;49000;50.698;13.322;2023-11-21T14:35:15;2.27;;;1.63;;
62903;SDS011;49000;50.698;13.322;2023-11-21T14:37:41;2.47;;;1.53;;
62903;SDS011;49000;50.698;13.322;2023-11-21T14:40:07;2.33;;;1.40;;
62903;SDS011;49000;50.698;13.322;2023-11-21T14:42:33;3.03;;;2.20;;
62903;SDS011;49000;50.698;13.322;2023-11-21T14:45:00;2.20;;;1.60;;
62903;SDS011;49000;50.698;13.322;2023-11-21T14:47:31;4.33;;;2.40;;
62903;SDS011;49000;50.698;13.322;2023-11-21T14:49:57;2.57;;;1.70;;